createdAt,value
2023-04-16T00:00:06.341Z,76.6834
2023-04-16T00:01:07.351Z,76.4054
2023-04-16T00:02:08.507Z,77.0038
2023-04-16T00:03:09.569Z,76.4228
2023-04-16T00:04:10.597Z,75.2946
2023-04-16T00:05:11.525Z,75.0936
2023-04-16T00:06:12.511Z,74.9825
2023-04-16T00:07:13.566Z,75.1454
2023-04-16T00:08:14.645Z,75.6965
2023-04-16T00:09:15.645Z,76.5291
2023-04-16T00:10:16.729Z,77.3826
2023-04-16T00:11:17.779Z,77.0925
2023-04-16T00:12:18.764Z,77.2542
2023-04-16T00:13:19.801Z,77.8420
2023-04-16T00:14:20.847Z,78.1167
2023-04-16T00:15:22.010Z,78.2878
2023-04-16T00:16:23.032Z,77.6731
2023-04-16T00:17:24.046Z,77.9534
2023-04-16T00:18:25.050Z,77.3571
2023-04-16T00:19:26.100Z,76.8652
2023-04-16T00:20:27.143Z,76.9305
2023-04-16T00:21:28.191Z,77.3367
2023-04-16T00:22:29.210Z,77.7597
2023-04-16T00:23:30.222Z,77.4395
2023-04-16T00:24:31.268Z,76.5966
2023-04-16T00:25:32.352Z,76.0819
2023-04-16T00:26:33.346Z,76.7898
2023-04-16T00:27:34.400Z,76.8504
2023-04-16T00:28:35.402Z,75.6334
2023-04-16T00:29:36.404Z,75.5329
2023-04-16T00:30:37.471Z,75.4369
2023-04-16T00:31:38.451Z,76.0632
2023-04-16T00:32:39.540Z,76.8329
2023-04-16T00:33:40.512Z,76.6603
2023-04-16T00:34:41.665Z,76.4647
2023-04-16T00:35:42.645Z,76.3800
2023-04-16T00:36:43.648Z,76.6366
2023-04-16T00:37:44.694Z,77.1953
2023-04-16T00:38:45.681Z,77.6008
2023-04-16T00:39:46.787Z,78.1171
2023-04-16T00:40:47.800Z,78.6099
2023-04-16T00:41:48.805Z,78.3135
2023-04-16T00:42:49.833Z,77.9768
2023-04-16T00:43:50.886Z,78.2048
2023-04-16T00:44:51.925Z,78.5983
2023-04-16T00:45:53.072Z,78.7522
2023-04-16T00:46:54.016Z,78.5054
2023-04-16T00:47:55.142Z,77.2351
2023-04-16T00:48:56.060Z,77.3820
2023-04-16T00:49:57.125Z,77.7041
2023-04-16T00:50:58.183Z,76.7784
2023-04-16T00:51:59.224Z,76.8676
2023-04-16T00:53:00.235Z,76.4169
2023-04-16T00:54:01.266Z,77.0912
2023-04-16T00:55:02.306Z,76.8211
2023-04-16T00:56:03.380Z,76.2480
2023-04-16T00:57:04.384Z,75.6617
2023-04-16T00:58:05.390Z,75.9776
2023-04-16T00:59:06.426Z,76.0199
2023-04-16T01:00:07.462Z,75.3967
2023-04-16T01:01:08.709Z,76.6745
2023-04-16T01:02:09.646Z,77.0171
2023-04-16T01:03:10.756Z,77.3576
2023-04-16T01:04:11.846Z,76.8691
2023-04-16T01:05:12.728Z,77.1788
2023-04-16T01:06:13.762Z,76.6269
2023-04-16T01:07:14.764Z,76.0456
2023-04-16T01:08:15.825Z,76.2213
2023-04-16T01:09:16.861Z,76.0575
2023-04-16T01:10:17.934Z,76.4817
2023-04-16T01:11:18.999Z,77.1940
2023-04-16T01:12:19.985Z,76.7596
2023-04-16T01:13:21.009Z,76.8682
2023-04-16T01:14:22.047Z,76.7363
2023-04-16T01:15:23.104Z,76.7628
2023-04-16T01:16:24.288Z,76.6633
2023-04-16T01:17:25.174Z,76.7279
2023-04-16T01:18:26.264Z,76.8617
2023-04-16T01:19:27.265Z,76.8197
2023-04-16T01:20:28.287Z,76.6822
2023-04-16T01:21:29.328Z,76.7920
2023-04-16T01:22:30.351Z,75.8606
2023-04-16T01:23:31.385Z,75.8568
2023-04-16T01:24:32.975Z,76.5007
2023-04-16T01:25:33.386Z,76.1587
2023-04-16T01:26:34.405Z,76.7380
2023-04-16T01:27:35.437Z,76.4740
2023-04-16T01:28:36.489Z,76.2803
2023-04-16T01:29:37.508Z,76.0174
2023-04-16T01:30:38.529Z,76.3267
2023-04-16T01:31:39.656Z,76.2599
2023-04-16T01:32:40.630Z,76.3951
2023-04-16T01:33:41.633Z,76.3289
2023-04-16T01:34:42.688Z,76.0238
2023-04-16T01:35:43.725Z,76.5028
2023-04-16T01:36:44.793Z,76.8163
2023-04-16T01:37:45.809Z,76.8640
2023-04-16T01:38:46.846Z,76.5728
2023-04-16T01:39:47.876Z,76.1696
2023-04-16T01:40:48.920Z,76.3332
2023-04-16T01:41:49.967Z,76.6398
2023-04-16T01:42:50.980Z,76.8219
2023-04-16T01:43:51.987Z,76.7139
2023-04-16T01:44:53.008Z,76.9413
2023-04-16T01:45:54.060Z,76.9713
2023-04-16T01:46:55.153Z,76.6731
2023-04-16T01:47:56.149Z,76.3544
2023-04-16T01:48:57.181Z,76.3669
2023-04-16T01:49:58.276Z,76.7657
2023-04-16T01:50:59.234Z,77.0636
2023-04-16T01:52:00.298Z,76.3584
2023-04-16T01:53:01.328Z,75.8649
2023-04-16T01:54:02.347Z,76.1561
2023-04-16T01:55:03.383Z,77.3742
2023-04-16T01:56:04.425Z,78.0725
2023-04-16T01:57:05.520Z,78.2590
2023-04-16T01:58:06.605Z,77.5820
2023-04-16T01:59:08.044Z,77.2613
2023-04-16T02:00:08.641Z,76.9085
2023-04-16T02:01:09.750Z,76.7890
2023-04-16T02:02:10.758Z,76.9298
2023-04-16T02:03:11.935Z,76.8292
2023-04-16T02:04:12.822Z,76.6587
2023-04-16T02:05:13.811Z,76.6054
2023-04-16T02:06:14.851Z,76.5647
2023-04-16T02:07:15.896Z,76.3184
2023-04-16T02:08:17.063Z,76.0980
2023-04-16T02:09:17.958Z,76.1661
2023-04-16T02:10:19.005Z,76.6563
2023-04-16T02:11:20.024Z,76.1064
2023-04-16T02:12:21.006Z,76.1199
2023-04-16T02:13:22.040Z,75.9964
2023-04-16T02:14:23.052Z,75.8168
2023-04-16T02:15:24.075Z,75.0398
2023-04-16T02:16:25.153Z,75.2392
2023-04-16T02:17:26.172Z,74.9117
2023-04-16T02:18:27.206Z,74.9338
2023-04-16T02:19:28.202Z,75.4156
2023-04-16T02:20:29.263Z,75.6420
2023-04-16T02:21:30.281Z,75.0848
2023-04-16T02:22:31.323Z,75.0462
2023-04-16T02:23:32.384Z,74.8587
2023-04-16T02:24:33.379Z,74.6813
2023-04-16T02:25:34.423Z,74.4555
2023-04-16T02:26:35.441Z,75.1911
2023-04-16T02:27:36.484Z,75.7923
2023-04-16T02:28:37.561Z,76.1740
2023-04-16T02:29:38.528Z,76.0938
2023-04-16T02:30:39.609Z,76.0014
2023-04-16T02:31:40.680Z,75.9884
2023-04-16T02:32:41.713Z,75.0969
2023-04-16T02:33:42.719Z,75.3587
2023-04-16T02:34:43.739Z,75.8470
2023-04-16T02:35:44.782Z,75.8416
2023-04-16T02:36:45.785Z,75.5617
2023-04-16T02:37:46.855Z,75.7806
2023-04-16T02:38:47.928Z,76.2212
2023-04-16T02:39:48.923Z,76.0664
2023-04-16T02:40:49.947Z,76.4026
2023-04-16T02:41:51.008Z,76.5137
2023-04-16T02:42:52.029Z,77.5152
2023-04-16T02:43:53.101Z,77.6749
2023-04-16T02:44:54.100Z,76.9880
2023-04-16T02:45:55.236Z,76.8572
2023-04-16T02:46:56.302Z,77.0243
2023-04-16T02:47:57.397Z,76.3034
2023-04-16T02:48:58.367Z,76.5017
2023-04-16T02:49:59.350Z,76.9281
2023-04-16T02:51:00.394Z,77.0823
2023-04-16T02:52:01.449Z,77.2538
2023-04-16T02:53:02.464Z,77.4758
2023-04-16T02:54:03.574Z,77.8724
2023-04-16T02:55:04.623Z,78.0086
2023-04-16T02:56:05.593Z,77.9560
2023-04-16T02:57:06.646Z,77.8107
2023-04-16T02:58:07.657Z,77.5555
2023-04-16T02:59:08.937Z,76.8455
2023-04-16T03:00:09.769Z,76.8110
2023-04-16T03:01:10.850Z,76.8170
2023-04-16T03:02:11.885Z,75.9675
2023-04-16T03:03:12.945Z,76.4134
2023-04-16T03:04:13.945Z,76.9508
2023-04-16T03:05:14.933Z,76.8949
2023-04-16T03:06:16.031Z,77.1273
2023-04-16T03:07:17.069Z,77.7989
2023-04-16T03:08:18.051Z,77.0545
2023-04-16T03:09:19.091Z,76.5956
2023-04-16T03:10:20.134Z,76.6264
2023-04-16T03:11:21.191Z,76.8790
2023-04-16T03:12:22.174Z,76.3897
2023-04-16T03:13:23.234Z,77.0808
2023-04-16T03:14:24.311Z,77.6114
2023-04-16T03:15:25.323Z,77.6985
2023-04-16T03:16:26.353Z,77.4256
2023-04-16T03:17:27.429Z,76.9508
2023-04-16T03:18:28.396Z,77.3717
2023-04-16T03:19:29.475Z,77.2204
2023-04-16T03:20:30.492Z,77.6418
2023-04-16T03:21:31.552Z,77.9085
2023-04-16T03:22:32.582Z,78.0461
2023-04-16T03:23:33.625Z,77.6055
2023-04-16T03:24:34.689Z,78.3892
2023-04-16T03:25:35.730Z,78.2182
2023-04-16T03:26:36.722Z,77.6350
2023-04-16T03:27:37.774Z,77.3505
2023-04-16T03:28:38.818Z,77.0431
2023-04-16T03:29:39.883Z,77.4337
2023-04-16T03:30:40.902Z,77.8055
2023-04-16T03:31:41.989Z,78.2395
2023-04-16T03:32:43.063Z,78.1023
2023-04-16T03:33:43.998Z,77.1945
2023-04-16T03:34:45.089Z,77.5435
2023-04-16T03:35:46.125Z,77.9058
2023-04-16T03:36:47.298Z,77.2277
2023-04-16T03:37:48.156Z,76.9952
2023-04-16T03:38:49.206Z,77.5664
2023-04-16T03:39:50.310Z,77.5585
2023-04-16T03:40:51.304Z,77.9599
2023-04-16T03:41:52.382Z,78.4996
2023-04-16T03:42:53.436Z,78.7481
2023-04-16T03:43:54.623Z,78.4261
2023-04-16T03:44:55.502Z,77.6974
2023-04-16T03:45:56.577Z,77.9510
2023-04-16T03:46:57.659Z,77.4310
2023-04-16T03:47:58.656Z,77.2538
2023-04-16T03:48:59.694Z,77.7570
2023-04-16T03:50:00.732Z,78.4441
2023-04-16T03:51:01.812Z,78.1711
2023-04-16T03:52:02.852Z,78.2816
2023-04-16T03:53:03.831Z,77.5349
2023-04-16T03:54:04.883Z,77.7401
2023-04-16T03:55:05.831Z,78.0403
2023-04-16T03:56:06.900Z,77.3891
2023-04-16T03:57:07.895Z,77.2238
2023-04-16T03:58:08.952Z,76.9761
2023-04-16T03:59:10.139Z,77.3035
2023-04-16T04:00:11.038Z,77.7353
2023-04-16T04:01:12.082Z,78.5213
2023-04-16T04:02:13.263Z,79.0514
2023-04-16T04:03:14.310Z,78.4408
2023-04-16T04:04:15.234Z,78.0381
2023-04-16T04:05:16.217Z,77.8419
2023-04-16T04:06:17.294Z,78.3605
2023-04-16T04:07:18.311Z,78.0366
2023-04-16T04:08:19.313Z,78.1874
2023-04-16T04:09:20.396Z,78.7722
2023-04-16T04:10:21.410Z,79.2854
2023-04-16T04:11:22.478Z,78.8071
2023-04-16T04:12:23.481Z,78.8651
2023-04-16T04:13:24.526Z,78.0293
2023-04-16T04:14:25.556Z,78.3350
2023-04-16T04:15:26.616Z,78.6982
2023-04-16T04:16:27.699Z,78.4938
2023-04-16T04:17:28.667Z,78.5893
2023-04-16T04:18:29.713Z,78.2466
2023-04-16T04:19:30.777Z,78.0470
2023-04-16T04:20:31.807Z,78.5018
2023-04-16T04:21:32.896Z,78.1768
2023-04-16T04:22:33.877Z,78.6605
2023-04-16T04:23:34.924Z,79.1883
2023-04-16T04:24:35.971Z,78.7059
2023-04-16T04:25:37.002Z,78.2249
2023-04-16T04:26:38.183Z,77.7377
2023-04-16T04:27:39.060Z,77.9951
2023-04-16T04:28:40.175Z,77.6087
2023-04-16T04:29:41.204Z,77.0216
2023-04-16T04:30:42.382Z,76.9191
2023-04-16T04:31:43.515Z,77.3348
2023-04-16T04:32:44.371Z,77.5156
2023-04-16T04:33:45.365Z,77.7723
2023-04-16T04:34:46.415Z,78.6870
2023-04-16T04:35:47.544Z,79.0859
2023-04-16T04:36:48.522Z,79.2881
2023-04-16T04:37:49.557Z,79.3838
2023-04-16T04:38:50.566Z,79.0543
2023-04-16T04:39:51.609Z,78.3848
2023-04-16T04:40:52.690Z,78.8597
2023-04-16T04:41:53.703Z,79.4327
2023-04-16T04:42:54.733Z,78.8945
2023-04-16T04:43:55.791Z,78.6102
2023-04-16T04:44:56.822Z,78.9579
2023-04-16T04:45:57.881Z,79.2226
2023-04-16T04:46:58.923Z,78.9446
2023-04-16T04:47:59.951Z,78.6485
2023-04-16T04:49:00.966Z,78.1285
2023-04-16T04:50:01.988Z,77.9471
2023-04-16T04:51:05.032Z,78.3617
2023-04-16T04:52:04.063Z,78.4430
2023-04-16T04:53:05.042Z,78.8441
2023-04-16T04:54:06.105Z,79.4651
2023-04-16T04:55:07.162Z,79.0025
2023-04-16T04:56:12.796Z,79.1544
2023-04-16T04:57:09.286Z,79.5334
2023-04-16T04:58:10.269Z,79.7940
2023-04-16T04:59:11.450Z,79.8594
2023-04-16T05:00:12.326Z,79.7716
2023-04-16T05:01:13.367Z,79.7981
2023-04-16T05:02:14.532Z,79.4486
2023-04-16T05:03:15.489Z,78.9792
2023-04-16T05:04:16.598Z,78.7639
2023-04-16T05:05:17.586Z,78.7096
2023-04-16T05:06:18.567Z,78.5842
2023-04-16T05:07:19.589Z,77.9421
2023-04-16T05:08:20.639Z,78.2766
2023-04-16T05:09:21.663Z,78.1389
2023-04-16T05:10:22.693Z,78.4841
2023-04-16T05:11:23.716Z,79.1626
2023-04-16T05:12:24.775Z,78.9839
2023-04-16T05:13:25.811Z,78.3210
2023-04-16T05:14:26.852Z,77.5524
2023-04-16T05:15:27.896Z,77.8863
2023-04-16T05:16:28.978Z,77.3613
2023-04-16T05:17:30.038Z,76.6389
2023-04-16T05:18:30.972Z,76.9783
2023-04-16T05:19:32.070Z,77.3861
2023-04-16T05:20:33.068Z,77.3893
2023-04-16T05:21:34.106Z,77.1166
2023-04-16T05:22:35.178Z,76.4560
2023-04-16T05:23:36.221Z,76.4275
2023-04-16T05:24:37.277Z,76.7903
2023-04-16T05:25:38.333Z,76.6161
2023-04-16T05:26:39.369Z,76.7783
2023-04-16T05:27:40.478Z,78.0605
2023-04-16T05:28:41.459Z,78.6432
2023-04-16T05:29:42.492Z,78.4587
2023-04-16T05:30:43.588Z,78.0702
2023-04-16T05:31:44.574Z,77.9969
2023-04-16T05:32:45.683Z,77.9696
2023-04-16T05:33:46.658Z,77.6289
2023-04-16T05:34:47.719Z,77.6729
2023-04-16T05:35:48.675Z,78.2845
2023-04-16T05:36:49.690Z,77.9992
2023-04-16T05:37:50.793Z,77.8966
2023-04-16T05:38:51.828Z,77.8860
2023-04-16T05:39:52.932Z,78.0875
2023-04-16T05:40:53.855Z,78.7659
2023-04-16T05:41:54.902Z,79.1664
2023-04-16T05:42:56.013Z,79.1272
2023-04-16T05:43:56.984Z,78.6214
2023-04-16T05:44:58.027Z,78.6605
2023-04-16T05:45:59.108Z,78.4031
2023-04-16T05:47:00.094Z,77.9152
2023-04-16T05:48:01.196Z,77.5472
2023-04-16T05:49:02.189Z,77.9094
2023-04-16T05:50:03.190Z,78.1873
2023-04-16T05:51:04.306Z,77.2819
2023-04-16T05:52:05.275Z,77.7394
2023-04-16T05:53:06.292Z,77.1334
2023-04-16T05:54:07.365Z,77.0293
2023-04-16T05:55:08.349Z,77.0046
2023-04-16T05:56:09.390Z,77.1970
2023-04-16T05:57:10.433Z,77.3893
2023-04-16T05:58:11.470Z,78.1585
2023-04-16T05:59:12.555Z,78.5153
2023-04-16T06:00:13.526Z,77.9417
2023-04-16T06:01:14.600Z,77.7146
2023-04-16T06:02:15.710Z,77.8171
2023-04-16T06:03:16.828Z,78.2632
2023-04-16T06:04:17.875Z,79.3604
2023-04-16T06:05:18.738Z,79.7216
2023-04-16T06:06:19.783Z,79.7450
2023-04-16T06:07:20.836Z,79.5759
2023-04-16T06:08:21.849Z,79.8562
2023-04-16T06:09:23.024Z,79.5357
2023-04-16T06:10:23.939Z,79.3310
2023-04-16T06:11:24.993Z,79.9420
2023-04-16T06:12:26.025Z,79.9620
2023-04-16T06:13:27.080Z,79.8288
2023-04-16T06:14:28.168Z,79.3632
2023-04-16T06:15:29.132Z,79.0313
2023-04-16T06:16:30.259Z,79.1668
2023-04-16T06:17:31.265Z,79.4151
2023-04-16T06:18:32.294Z,78.9568
2023-04-16T06:19:33.344Z,78.6463
2023-04-16T06:20:34.351Z,79.3608
2023-04-16T06:21:35.380Z,79.9075
2023-04-16T06:22:36.417Z,79.8738
2023-04-16T06:23:37.486Z,79.5363
2023-04-16T06:24:38.558Z,79.6585
2023-04-16T06:25:39.554Z,79.6993
2023-04-16T06:26:40.576Z,79.3503
2023-04-16T06:27:41.615Z,79.4254
2023-04-16T06:28:42.648Z,79.1996
2023-04-16T06:29:43.750Z,79.2487
2023-04-16T06:30:44.861Z,79.1919
2023-04-16T06:31:45.813Z,79.2656
2023-04-16T06:32:46.862Z,79.3544
2023-04-16T06:33:47.856Z,79.5356
2023-04-16T06:34:49.161Z,79.4459
2023-04-16T06:35:49.928Z,79.3105
2023-04-16T06:36:50.968Z,78.9762
2023-04-16T06:37:52.004Z,78.6395
2023-04-16T06:38:53.050Z,78.4918
2023-04-16T06:39:54.131Z,78.2938
2023-04-16T06:40:55.116Z,78.2046
2023-04-16T06:41:56.185Z,78.7113
2023-04-16T06:42:57.216Z,78.1949
2023-04-16T06:43:58.231Z,78.2803
2023-04-16T06:44:59.292Z,78.5218
2023-04-16T06:46:00.303Z,78.6809
2023-04-16T06:47:01.407Z,78.4411
2023-04-16T06:48:02.433Z,78.5825
2023-04-16T06:49:03.435Z,78.6122
2023-04-16T06:50:04.564Z,79.1135
2023-04-16T06:51:05.509Z,79.6998
2023-04-16T06:52:06.546Z,79.2376
2023-04-16T06:53:07.559Z,78.9964
2023-04-16T06:54:08.619Z,78.4108
2023-04-16T06:55:09.704Z,78.8917
2023-04-16T06:56:10.709Z,80.0590
2023-04-16T06:57:11.714Z,80.6018
2023-04-16T06:58:12.780Z,80.5668
2023-04-16T06:59:13.755Z,80.7289
2023-04-16T07:00:14.855Z,80.9285
2023-04-16T07:01:15.905Z,80.6348
2023-04-16T07:02:17.022Z,80.4698
2023-04-16T07:03:18.017Z,79.9228
2023-04-16T07:04:19.013Z,80.0502
2023-04-16T07:05:20.184Z,79.9971
2023-04-16T07:06:21.160Z,80.5348
2023-04-16T07:07:22.322Z,80.6883
2023-04-16T07:08:23.193Z,80.4836
2023-04-16T07:09:24.259Z,80.0865
2023-04-16T07:10:25.582Z,79.9980
2023-04-16T07:11:26.306Z,80.0514
2023-04-16T07:12:27.366Z,80.3588
2023-04-16T07:13:28.590Z,80.3784
2023-04-16T07:14:29.440Z,79.6298
2023-04-16T07:15:30.526Z,79.5107
2023-04-16T07:16:31.596Z,79.9086
2023-04-16T07:17:32.594Z,80.0931
2023-04-16T07:18:33.586Z,79.7126
2023-04-16T07:19:34.603Z,79.5570
2023-04-16T07:20:35.671Z,79.9025
2023-04-16T07:21:36.745Z,80.1174
2023-04-16T07:22:37.729Z,80.5359
2023-04-16T07:23:38.745Z,81.1922
2023-04-16T07:24:39.788Z,81.4253
2023-04-16T07:25:41.160Z,81.2481
2023-04-16T07:26:41.876Z,80.8785
2023-04-16T07:27:42.923Z,80.8972
2023-04-16T07:28:43.955Z,80.7129
2023-04-16T07:29:44.984Z,80.5028
2023-04-16T07:30:46.048Z,80.5466
2023-04-16T07:31:47.151Z,81.1130
2023-04-16T07:32:48.162Z,80.3454
2023-04-16T07:33:49.148Z,80.1017
2023-04-16T07:34:50.235Z,80.4986
2023-04-16T07:35:51.240Z,80.0297
2023-04-16T07:36:52.309Z,79.7053
2023-04-16T07:37:53.310Z,80.3572
2023-04-16T07:38:54.386Z,80.6967
2023-04-16T07:39:57.375Z,80.8664
2023-04-16T07:40:56.411Z,80.3966
2023-04-16T07:41:57.524Z,80.0149
2023-04-16T07:42:58.494Z,80.2081
2023-04-16T07:43:59.558Z,80.1835
2023-04-16T07:45:00.585Z,80.7094
2023-04-16T07:46:01.655Z,80.7960
2023-04-16T07:47:05.246Z,80.5217
2023-04-16T07:48:03.718Z,79.9518
2023-04-16T07:49:04.751Z,79.7793
2023-04-16T07:50:05.767Z,79.8092
2023-04-16T07:51:06.812Z,80.0906
2023-04-16T07:52:07.866Z,79.8638
2023-04-16T07:53:08.869Z,79.5958
2023-04-16T07:54:09.882Z,80.1077
2023-04-16T07:55:10.909Z,80.1912
2023-04-16T07:56:11.940Z,80.0270
2023-04-16T07:57:13.053Z,79.3895
2023-04-16T07:58:14.027Z,79.7712
2023-04-16T07:59:22.728Z,79.7954
2023-04-16T08:00:16.122Z,79.7808
2023-04-16T08:01:17.145Z,79.4349
2023-04-16T08:02:18.284Z,78.2435
2023-04-16T08:03:19.428Z,77.8734
2023-04-16T08:04:20.434Z,78.3594
2023-04-16T08:05:21.372Z,78.1858
2023-04-16T08:06:22.316Z,78.7074
2023-04-16T08:07:23.419Z,78.8769
2023-04-16T08:08:24.398Z,78.6644
2023-04-16T08:09:25.449Z,79.1683
2023-04-16T08:10:26.480Z,79.3290
2023-04-16T08:11:27.544Z,79.4263
2023-04-16T08:12:28.650Z,79.4050
2023-04-16T08:13:30.851Z,78.9823
2023-04-16T08:14:30.678Z,78.7512
2023-04-16T08:15:31.736Z,78.4125
2023-04-16T08:16:32.719Z,78.0608
2023-04-16T08:17:33.825Z,78.5687
2023-04-16T08:18:34.847Z,78.7130
2023-04-16T08:19:35.856Z,78.9855
2023-04-16T08:20:36.903Z,79.3891
2023-04-16T08:21:37.900Z,79.0904
2023-04-16T08:22:38.948Z,78.9072
2023-04-16T08:23:40.026Z,78.6281
2023-04-16T08:24:41.036Z,78.7866
2023-04-16T08:25:42.100Z,78.3690
2023-04-16T08:26:43.096Z,78.4531
2023-04-16T08:27:44.149Z,78.5186
2023-04-16T08:28:45.211Z,77.6535
2023-04-16T08:29:46.199Z,78.3500
2023-04-16T08:30:47.236Z,79.2846
2023-04-16T08:31:48.328Z,78.9772
2023-04-16T08:32:50.233Z,78.3475
2023-04-16T08:33:50.409Z,77.9809
2023-04-16T08:34:51.442Z,78.7342
2023-04-16T08:35:52.471Z,79.1005
2023-04-16T08:36:53.503Z,79.0913
2023-04-16T08:37:54.562Z,79.7763
2023-04-16T08:38:55.603Z,79.7122
2023-04-16T08:39:56.583Z,79.2523
2023-04-16T08:40:57.620Z,79.2587
2023-04-16T08:41:58.701Z,79.8234
2023-04-16T08:42:59.694Z,79.9312
2023-04-16T08:44:00.970Z,80.1904
2023-04-16T08:45:01.806Z,79.6730
2023-04-16T08:46:02.830Z,80.1600
2023-04-16T08:47:03.973Z,79.8517
2023-04-16T08:48:05.006Z,78.7981
2023-04-16T08:49:06.000Z,79.7131
2023-04-16T08:50:07.005Z,80.3779
2023-04-16T08:51:08.058Z,80.1652
2023-04-16T08:52:09.095Z,79.9334
2023-04-16T08:53:10.108Z,79.4029
2023-04-16T08:54:11.193Z,80.4545
2023-04-16T08:55:12.192Z,80.9571
2023-04-16T08:56:13.255Z,80.9668
2023-04-16T08:57:14.248Z,80.7012
2023-04-16T08:58:15.400Z,80.4051
2023-04-16T08:59:16.383Z,79.9202
2023-04-16T09:00:17.381Z,79.9192
2023-04-16T09:01:18.539Z,80.7658
2023-04-16T09:02:19.521Z,81.3986
2023-04-16T09:03:20.687Z,80.9905
2023-04-16T09:04:21.672Z,79.2184
2023-04-16T09:05:22.622Z,78.2866
2023-04-16T09:06:23.638Z,79.1400
2023-04-16T09:07:24.696Z,79.2886
2023-04-16T09:08:25.907Z,78.8217
2023-04-16T09:09:27.197Z,78.9965
2023-04-16T09:10:27.796Z,79.2172
2023-04-16T09:11:28.810Z,79.4143
2023-04-16T09:12:29.853Z,79.0906
2023-04-16T09:13:30.895Z,78.9428
2023-04-16T09:14:31.955Z,78.8970
2023-04-16T09:15:35.038Z,78.7570
2023-04-16T09:16:34.028Z,78.0890
2023-04-16T09:17:35.097Z,78.2271
2023-04-16T09:18:36.056Z,77.6051
2023-04-16T09:19:37.233Z,78.4957
2023-04-16T09:20:38.113Z,79.0092
2023-04-16T09:21:39.182Z,79.1839
2023-04-16T09:22:40.224Z,78.8980
2023-04-16T09:23:41.235Z,78.2425
2023-04-16T09:24:42.314Z,78.0495
2023-04-16T09:25:43.301Z,77.7122
2023-04-16T09:26:44.504Z,77.6371
2023-04-16T09:27:45.407Z,78.3194
2023-04-16T09:28:46.436Z,79.4624
2023-04-16T09:29:47.500Z,79.3640
2023-04-16T09:30:48.497Z,79.0374
2023-04-16T09:31:49.613Z,78.8499
2023-04-16T09:32:50.645Z,78.8688
2023-04-16T09:33:51.616Z,78.9898
2023-04-16T09:34:52.658Z,79.0947
2023-04-16T09:35:53.776Z,78.8019
2023-04-16T09:36:54.700Z,78.0992
2023-04-16T09:37:55.719Z,78.3013
2023-04-16T09:38:57.786Z,78.4400
2023-04-16T09:39:57.860Z,78.0820
2023-04-16T09:40:58.901Z,77.6436
2023-04-16T09:41:59.979Z,77.9780
2023-04-16T09:43:00.969Z,78.5993
2023-04-16T09:44:02.030Z,78.4216
2023-04-16T09:45:05.457Z,77.9794
2023-04-16T09:46:07.865Z,78.5706
2023-04-16T09:47:05.102Z,78.8941
2023-04-16T09:48:06.194Z,78.9005
2023-04-16T09:49:07.390Z,79.2356
2023-04-16T09:50:08.233Z,79.2207
2023-04-16T09:51:09.254Z,78.4433
2023-04-16T09:52:10.269Z,78.7561
2023-04-16T09:53:11.313Z,79.5551
2023-04-16T09:54:12.376Z,80.0403
2023-04-16T09:55:13.444Z,79.6886
2023-04-16T09:56:14.496Z,80.1303
2023-04-16T09:57:15.468Z,79.9501
2023-04-16T09:58:16.530Z,79.1935
2023-04-16T09:59:17.543Z,78.4392
2023-04-16T10:00:18.779Z,78.8439
2023-04-16T10:01:19.692Z,79.2966
2023-04-16T10:02:20.718Z,79.6943
2023-04-16T10:03:21.810Z,79.1445
2023-04-16T10:04:22.780Z,79.7633
2023-04-16T10:05:23.779Z,79.9929
2023-04-16T10:06:24.837Z,80.2522
2023-04-16T10:07:25.855Z,80.0910
2023-04-16T10:08:26.913Z,79.9751
2023-04-16T10:09:27.914Z,79.5035
2023-04-16T10:10:28.991Z,79.1082
2023-04-16T10:11:30.062Z,79.7991
2023-04-16T10:12:31.014Z,79.8164
2023-04-16T10:13:32.081Z,79.1363
2023-04-16T10:14:33.195Z,78.4124
2023-04-16T10:15:34.212Z,78.6665
2023-04-16T10:16:35.226Z,79.4701
2023-04-16T10:17:36.231Z,79.9151
2023-04-16T10:18:37.249Z,80.4002
2023-04-16T10:19:38.314Z,80.3385
2023-04-16T10:20:39.392Z,80.1433
2023-04-16T10:21:40.398Z,80.4621
2023-04-16T10:22:41.400Z,80.2475
2023-04-16T10:23:42.440Z,80.8273
2023-04-16T10:24:43.478Z,81.4746
2023-04-16T10:25:44.520Z,81.5613
2023-04-16T10:26:45.621Z,81.2332
2023-04-16T10:27:46.644Z,80.9844
2023-04-16T10:28:47.644Z,81.1348
2023-04-16T10:29:48.681Z,80.9969
2023-04-16T10:30:49.756Z,81.4200
2023-04-16T10:31:50.819Z,81.4231
2023-04-16T10:32:51.855Z,80.8894
2023-04-16T10:33:52.876Z,80.3817
2023-04-16T10:34:53.910Z,80.0773
2023-04-16T10:36:04.892Z,80.6621
2023-04-16T10:36:56.080Z,80.9624
2023-04-16T10:37:56.985Z,80.4083
2023-04-16T10:38:58.031Z,80.1455
2023-04-16T10:39:59.070Z,80.6591
2023-04-16T10:41:00.103Z,80.6563
2023-04-16T10:42:01.171Z,80.4146
2023-04-16T10:43:02.184Z,80.5351
2023-04-16T10:44:03.217Z,80.8364
2023-04-16T10:45:04.269Z,80.4986
2023-04-16T10:46:05.304Z,80.0421
2023-04-16T10:47:06.424Z,79.9476
2023-04-16T10:48:08.018Z,79.7129
2023-04-16T10:49:08.670Z,79.7646
2023-04-16T10:50:09.430Z,79.8188
2023-04-16T10:51:10.449Z,79.9295
2023-04-16T10:52:11.509Z,80.6996
2023-04-16T10:53:12.534Z,81.0614
2023-04-16T10:54:13.563Z,80.3087
2023-04-16T10:55:14.604Z,79.3506
2023-04-16T10:56:15.645Z,79.5588
2023-04-16T10:57:16.718Z,79.0440
2023-04-16T10:58:17.707Z,79.7358
2023-04-16T10:59:18.758Z,79.7322
2023-04-16T11:00:20.024Z,79.6648
2023-04-16T11:01:20.885Z,79.8300
2023-04-16T11:02:22.026Z,79.2587
2023-04-16T11:03:23.045Z,78.1492
2023-04-16T11:04:24.010Z,79.0618
2023-04-16T11:05:24.986Z,79.5810
2023-04-16T11:06:26.134Z,79.1114
2023-04-16T11:07:27.147Z,78.0080
2023-04-16T11:08:28.188Z,77.4521
2023-04-16T11:09:29.208Z,78.6405
2023-04-16T11:10:30.246Z,79.2388
2023-04-16T11:11:31.289Z,79.6402
2023-04-16T11:12:32.380Z,79.4230
2023-04-16T11:13:33.378Z,79.0011
2023-04-16T11:14:34.428Z,78.8638
2023-04-16T11:15:35.474Z,77.8023
2023-04-16T11:16:36.495Z,78.5997
2023-04-16T11:17:37.613Z,78.4624
2023-04-16T11:18:38.566Z,79.2869
2023-04-16T11:19:39.584Z,79.9091
2023-04-16T11:20:40.657Z,78.6420
2023-04-16T11:21:41.651Z,78.5142
2023-04-16T11:22:42.749Z,78.3607
2023-04-16T11:23:43.808Z,78.1769
2023-04-16T11:24:44.852Z,77.2459
2023-04-16T11:25:45.811Z,77.4807
2023-04-16T11:26:46.844Z,78.5289
2023-04-16T11:27:48.046Z,78.0621
2023-04-16T11:28:48.941Z,78.5024
2023-04-16T11:29:49.956Z,78.9265
2023-04-16T11:30:50.993Z,78.3060
2023-04-16T11:31:52.154Z,78.3673
2023-04-16T11:32:53.286Z,78.2375
2023-04-16T11:33:54.124Z,77.3627
2023-04-16T11:34:55.185Z,76.5326
2023-04-16T11:35:56.226Z,76.0554
2023-04-16T11:36:57.258Z,76.2587
2023-04-16T11:37:58.285Z,77.6934
2023-04-16T11:38:59.412Z,77.5576
2023-04-16T11:40:00.442Z,77.5086
2023-04-16T11:41:01.473Z,77.7547
2023-04-16T11:42:02.570Z,77.2876
2023-04-16T11:43:03.609Z,77.2849
2023-04-16T11:44:04.649Z,77.2298
2023-04-16T11:45:05.660Z,76.9737
2023-04-16T11:46:16.588Z,77.1289
2023-04-16T11:47:07.868Z,77.8937
2023-04-16T11:48:11.093Z,77.2924
2023-04-16T11:49:10.136Z,76.9489
2023-04-16T11:50:10.887Z,76.0677
2023-04-16T11:51:11.891Z,76.4029
2023-04-16T11:52:12.953Z,75.4716
2023-04-16T11:53:14.003Z,75.0498
2023-04-16T11:54:15.003Z,75.6725
2023-04-16T11:55:16.033Z,75.9473
2023-04-16T11:56:17.103Z,75.9455
2023-04-16T11:57:18.131Z,75.9424
2023-04-16T11:58:19.265Z,75.6886
2023-04-16T11:59:20.239Z,76.4695
2023-04-16T12:00:23.718Z,76.5255
2023-04-16T12:01:22.315Z,77.4659
2023-04-16T12:02:23.433Z,77.6990
2023-04-16T12:03:24.613Z,77.9936
2023-04-16T12:04:25.546Z,77.2683
2023-04-16T12:05:26.483Z,77.2252
2023-04-16T12:06:27.570Z,77.2801
2023-04-16T12:07:28.555Z,76.9082
2023-04-16T12:08:29.636Z,75.8268
2023-04-16T12:09:30.620Z,76.2359
2023-04-16T12:10:31.708Z,76.3912
2023-04-16T12:11:32.667Z,76.6849
2023-04-16T12:12:33.727Z,75.7515
2023-04-16T12:13:34.824Z,75.9914
2023-04-16T12:14:35.875Z,76.3327
2023-04-16T12:15:36.839Z,77.4184
2023-04-16T12:16:37.911Z,77.5567
2023-04-16T12:17:39.033Z,77.5696